createdAt,value
2023-01-21T00:00:13.898Z,6.83
2023-01-21T00:02:41.228Z,7.90
2023-01-21T00:05:08.577Z,6.67
2023-01-21T00:07:35.704Z,8.13
2023-01-21T00:10:02.887Z,7.23
2023-01-21T00:12:30.074Z,7.60
2023-01-21T00:14:57.223Z,7.23
2023-01-21T00:17:24.420Z,11.43
2023-01-21T00:19:51.571Z,10.67
2023-01-21T00:22:18.801Z,8.40
2023-01-21T00:24:45.989Z,8.80
2023-01-21T00:27:13.128Z,6.67
2023-01-21T00:29:40.267Z,9.10
2023-01-21T00:32:07.428Z,7.83
2023-01-21T00:34:34.557Z,8.70
2023-01-21T00:37:01.709Z,7.57
2023-01-21T00:39:28.963Z,7.30
2023-01-21T00:41:56.172Z,7.33
2023-01-21T00:44:23.410Z,7.40
2023-01-21T00:46:50.585Z,7.53
2023-01-21T00:49:17.752Z,8.70
2023-01-21T00:51:44.911Z,7.90
2023-01-21T00:54:12.126Z,6.80
2023-01-21T00:56:39.548Z,7.53
2023-01-21T00:59:06.849Z,7.73
2023-01-21T01:01:34.624Z,7.77
2023-01-21T01:04:01.946Z,8.37
2023-01-21T01:06:29.074Z,7.53
2023-01-21T01:08:58.506Z,8.03
2023-01-21T01:11:26.826Z,8.33
2023-01-21T01:13:54.381Z,7.97
2023-01-21T01:16:21.626Z,8.00
2023-01-21T01:18:48.988Z,8.47
2023-01-21T01:21:17.095Z,7.50
2023-01-21T01:23:44.495Z,7.13
2023-01-21T01:26:12.274Z,6.50
2023-01-21T01:28:39.504Z,7.10
2023-01-21T01:31:07.547Z,6.90
2023-01-21T01:33:35.057Z,8.00
2023-01-21T01:36:02.987Z,9.37
2023-01-21T01:38:30.195Z,8.27
2023-01-21T01:40:57.352Z,8.60
2023-01-21T01:43:42.940Z,8.67
2023-01-21T01:46:10.084Z,7.33
2023-01-21T01:48:37.239Z,7.77
2023-01-21T01:51:04.623Z,7.10
2023-01-21T01:53:32.194Z,5.70
2023-01-21T01:55:59.529Z,6.30
2023-01-21T01:58:26.726Z,8.80
2023-01-21T02:00:53.880Z,6.37
2023-01-21T02:03:39.558Z,6.43
2023-01-21T02:06:06.801Z,4.60
2023-01-21T02:08:36.186Z,6.27
2023-01-21T02:11:03.570Z,6.47
2023-01-21T02:13:31.276Z,9.07
2023-01-21T02:16:27.956Z,6.77
2023-01-21T02:19:19.987Z,6.90
2023-01-21T02:21:50.195Z,8.70
2023-01-21T02:24:35.890Z,8.83
2023-01-21T02:27:03.118Z,10.83
2023-01-21T02:29:36.023Z,9.10
2023-01-21T02:32:15.179Z,9.90
2023-01-21T02:34:45.070Z,10.70
2023-01-21T02:37:17.266Z,9.03
2023-01-21T02:50:23.687Z,7.17
2023-01-21T02:53:00.447Z,7.13
2023-01-21T02:55:29.406Z,6.30
2023-01-21T02:57:57.741Z,7.20
2023-01-21T03:00:29.291Z,7.57
2023-01-21T03:03:15.162Z,7.57
2023-01-21T03:05:49.324Z,7.60
2023-01-21T03:08:16.454Z,7.33
2023-01-21T03:10:44.744Z,8.07
2023-01-21T03:13:14.996Z,6.60
2023-01-21T03:16:06.012Z,7.17
2023-01-21T03:18:33.227Z,7.53
2023-01-21T03:21:04.384Z,7.33
2023-01-21T03:23:32.919Z,7.93
2023-01-21T03:26:00.112Z,7.20
2023-01-21T03:28:27.834Z,7.37
2023-01-21T03:31:01.764Z,7.60
2023-01-21T03:33:28.991Z,7.20
2023-01-21T03:35:56.136Z,14.70
2023-01-21T03:38:23.918Z,7.23
2023-01-21T03:40:54.178Z,8.03
2023-01-21T03:43:21.391Z,6.30
2023-01-21T03:46:00.743Z,5.67
2023-01-21T03:48:40.212Z,7.17
2023-01-21T03:51:08.317Z,7.80
2023-01-21T03:53:35.545Z,10.33
2023-01-21T03:56:02.752Z,8.67
2023-01-21T03:58:29.948Z,7.80
2023-01-21T04:00:57.646Z,9.40
2023-01-21T04:03:24.803Z,10.53
2023-01-21T04:05:51.994Z,10.93
2023-01-21T04:08:19.140Z,10.87
2023-01-21T04:10:46.263Z,9.30
2023-01-21T04:13:13.433Z,9.67
2023-01-21T04:15:40.642Z,10.20
2023-01-21T04:18:07.774Z,5.43
2023-01-21T04:20:34.945Z,4.30
2023-01-21T04:23:02.072Z,9.17
2023-01-21T04:25:29.208Z,6.67
2023-01-21T04:27:56.374Z,6.77
2023-01-21T04:30:23.523Z,5.10
2023-01-21T04:32:50.734Z,4.10
2023-01-21T04:35:17.910Z,4.20
2023-01-21T04:37:45.033Z,4.10
2023-01-21T04:40:12.740Z,6.43
2023-01-21T04:42:39.901Z,11.43
2023-01-21T04:45:07.444Z,4.17
2023-01-21T04:47:34.587Z,5.10
2023-01-21T04:50:04.701Z,4.20
2023-01-21T04:52:31.866Z,4.53
2023-01-21T04:54:59.011Z,4.27
2023-01-21T04:57:26.202Z,4.63
2023-01-21T04:59:53.332Z,4.73
2023-01-21T05:02:20.565Z,5.13
2023-01-21T05:04:47.774Z,5.77
2023-01-21T05:07:14.963Z,5.30
2023-01-21T05:09:42.299Z,4.50
2023-01-21T05:12:09.656Z,3.67
2023-01-21T05:14:36.823Z,6.70
2023-01-21T05:17:04.061Z,4.90
2023-01-21T05:19:31.361Z,4.67
2023-01-21T05:21:58.512Z,5.03
2023-01-21T05:24:25.708Z,6.30
2023-01-21T05:26:52.991Z,6.63
2023-01-21T05:29:20.190Z,4.00
2023-01-21T05:31:47.328Z,3.67
2023-01-21T05:34:14.541Z,4.07
2023-01-21T05:36:41.705Z,3.93
2023-01-21T05:39:08.837Z,3.20
2023-01-21T05:41:36.078Z,2.80
2023-01-21T05:44:03.224Z,4.07
2023-01-21T05:46:30.353Z,4.43
2023-01-21T05:48:57.515Z,7.47
2023-01-21T05:51:24.672Z,10.20
2023-01-21T05:53:51.909Z,6.63
2023-01-21T05:56:19.094Z,8.17
2023-01-21T05:58:46.252Z,6.17
2023-01-21T06:01:13.391Z,4.27
2023-01-21T06:03:40.583Z,4.23
2023-01-21T06:06:54.504Z,5.93
2023-01-21T06:09:21.678Z,5.17
2023-01-21T06:11:48.854Z,5.07
2023-01-21T06:14:16.016Z,7.03
2023-01-21T06:16:43.178Z,4.50
2023-01-21T06:19:10.348Z,5.97
2023-01-21T06:21:37.495Z,4.50
2023-01-21T06:24:04.732Z,3.40
2023-01-21T06:26:31.961Z,6.13
2023-01-21T06:28:59.105Z,4.63
2023-01-21T06:31:26.394Z,13.57
2023-01-21T06:33:53.584Z,14.57
2023-01-21T06:36:20.730Z,8.97
2023-01-21T06:38:47.893Z,10.17
2023-01-21T06:41:15.033Z,9.90
2023-01-21T06:43:42.182Z,11.00
2023-01-21T06:46:10.641Z,8.23
2023-01-21T06:48:37.810Z,9.63
2023-01-21T06:51:05.224Z,6.80
2023-01-21T06:53:32.433Z,7.97
2023-01-21T06:55:59.572Z,8.23
2023-01-21T06:58:26.724Z,12.47
2023-01-21T07:00:56.953Z,22.47
2023-01-21T07:03:24.164Z,13.87
2023-01-21T07:05:51.365Z,9.83
2023-01-21T07:08:18.534Z,12.07
2023-01-21T07:10:47.688Z,11.90
2023-01-21T07:13:14.982Z,11.37
2023-01-21T07:15:42.198Z,8.63
2023-01-21T07:18:09.379Z,5.63
2023-01-21T07:20:36.717Z,6.73
2023-01-21T07:23:03.910Z,6.87
2023-01-21T07:25:32.389Z,3.27
2023-01-21T07:27:59.573Z,4.30
2023-01-21T07:30:26.779Z,5.23
2023-01-21T07:32:53.936Z,5.80
2023-01-21T07:35:21.083Z,5.60
2023-01-21T07:37:48.269Z,13.40
2023-01-21T07:40:15.513Z,12.77
2023-01-21T07:42:42.677Z,12.80
2023-01-21T07:45:10.016Z,16.20
2023-01-21T07:47:37.172Z,8.27
2023-01-21T07:50:08.531Z,7.57
2023-01-21T07:52:35.785Z,14.90
2023-01-21T07:55:02.985Z,18.43
2023-01-21T07:57:30.121Z,13.90
2023-01-21T07:59:57.340Z,9.53
2023-01-21T08:02:24.554Z,7.90
2023-01-21T08:04:51.747Z,9.50
2023-01-21T08:07:18.916Z,5.43
2023-01-21T08:09:46.047Z,8.77
2023-01-21T08:12:13.200Z,6.53
2023-01-21T08:14:40.523Z,5.23
2023-01-21T08:17:07.698Z,5.63
2023-01-21T08:19:34.836Z,6.57
2023-01-21T08:22:02.047Z,4.87
2023-01-21T08:24:29.238Z,3.90
2023-01-21T08:26:59.969Z,4.30
2023-01-21T08:29:27.362Z,4.97
2023-01-21T08:31:54.706Z,7.10
2023-01-21T08:34:22.041Z,8.60
2023-01-21T08:36:49.216Z,8.23
2023-01-21T08:39:16.591Z,7.60
2023-01-21T08:41:44.499Z,5.13
2023-01-21T08:44:11.685Z,4.37
2023-01-21T08:46:38.831Z,4.43
2023-01-21T08:49:06.776Z,4.97
2023-01-21T08:51:33.948Z,5.77
2023-01-21T08:54:01.128Z,5.00
2023-01-21T08:56:28.281Z,15.33
2023-01-21T08:58:56.375Z,11.87
2023-01-21T09:01:24.751Z,8.70
2023-01-21T09:03:55.930Z,10.97
2023-01-21T09:06:23.112Z,17.00
2023-01-21T09:08:50.306Z,16.67
2023-01-21T09:11:17.481Z,16.60
2023-01-21T09:13:44.898Z,14.77
2023-01-21T09:16:16.126Z,10.20
2023-01-21T09:18:43.467Z,7.63
2023-01-21T09:21:10.667Z,10.30
2023-01-21T09:23:37.998Z,5.13
2023-01-21T09:26:06.156Z,5.57
2023-01-21T09:28:37.238Z,9.17
2023-01-21T09:31:08.625Z,10.40
2023-01-21T09:33:36.383Z,8.40
2023-01-21T09:36:04.160Z,10.53
2023-01-21T09:38:31.334Z,6.57
2023-01-21T09:41:00.040Z,8.37
2023-01-21T09:43:34.274Z,7.80
2023-01-21T09:46:03.913Z,7.50
2023-01-21T09:48:32.644Z,7.77
2023-01-21T09:51:00.280Z,17.87
2023-01-21T09:53:28.743Z,8.63
2023-01-21T09:55:55.896Z,10.50
2023-01-21T09:58:35.249Z,8.20
2023-01-21T10:01:11.577Z,10.50
2023-01-21T10:03:38.857Z,7.60
2023-01-21T10:06:21.069Z,7.63
2023-01-21T10:09:03.278Z,6.10
2023-01-21T10:11:33.177Z,4.13
2023-01-21T10:14:09.211Z,4.43
2023-01-21T10:16:36.368Z,3.97
2023-01-21T10:19:04.009Z,4.00
2023-01-21T10:21:36.171Z,4.40
2023-01-21T10:24:16.202Z,3.70
2023-01-21T10:26:43.800Z,4.70
2023-01-21T10:29:14.955Z,5.90
2023-01-21T10:31:42.208Z,4.57
2023-01-21T10:34:19.022Z,3.60
2023-01-21T10:36:58.089Z,5.10
2023-01-21T10:39:28.314Z,5.50
2023-01-21T10:42:15.703Z,5.73
2023-01-21T10:44:54.823Z,8.40
2023-01-21T10:47:24.837Z,10.50
2023-01-21T10:50:01.289Z,8.57
2023-01-21T10:52:40.819Z,13.97
2023-01-21T10:55:16.486Z,8.80
2023-01-21T10:58:03.204Z,9.20
2023-01-21T11:00:32.602Z,10.87
2023-01-21T11:03:01.009Z,11.20
2023-01-21T11:05:28.160Z,13.67
2023-01-21T11:07:55.355Z,9.10
2023-01-21T11:10:26.244Z,11.73
2023-01-21T11:12:56.543Z,9.53
2023-01-21T11:15:23.952Z,16.77
2023-01-21T11:17:53.788Z,17.43
2023-01-21T11:20:24.168Z,12.83
2023-01-21T11:22:51.417Z,11.70
2023-01-21T11:25:38.159Z,10.80
2023-01-21T11:28:05.779Z,10.80
2023-01-21T11:30:49.998Z,11.00
2023-01-21T11:33:18.029Z,9.30
2023-01-21T11:35:45.191Z,5.50
2023-01-21T11:38:30.548Z,6.07
2023-01-21T11:41:25.058Z,6.13
2023-01-21T11:43:53.259Z,5.50
2023-01-21T11:46:28.783Z,6.67
2023-01-21T11:48:56.936Z,6.07
2023-01-21T11:51:24.168Z,5.57
2023-01-21T11:54:05.298Z,7.87
2023-01-21T11:56:32.427Z,7.43
2023-01-21T11:58:59.580Z,10.73
2023-01-21T12:01:26.729Z,7.40
2023-01-21T12:03:54.735Z,7.23
2023-01-21T12:06:23.203Z,8.27
2023-01-21T12:08:50.723Z,6.43
2023-01-21T12:11:24.277Z,8.40
2023-01-21T12:14:04.489Z,11.70
2023-01-21T12:16:32.391Z,13.43
2023-01-21T12:18:59.566Z,11.10
2023-01-21T12:21:39.068Z,8.23
2023-01-21T12:24:24.280Z,7.90
2023-01-21T12:26:55.321Z,6.77
2023-01-21T12:29:34.657Z,8.17
2023-01-21T12:32:22.212Z,8.37
2023-01-21T12:34:55.425Z,10.73
2023-01-21T12:37:22.648Z,12.40
2023-01-21T12:39:49.856Z,11.03
2023-01-21T12:42:16.993Z,8.13
2023-01-21T12:44:47.083Z,7.53
2023-01-21T12:47:25.038Z,22.23
2023-01-21T12:50:04.605Z,11.60
2023-01-21T12:52:39.699Z,7.13
2023-01-21T12:55:27.430Z,9.50
2023-01-21T12:57:58.996Z,9.20
2023-01-21T13:00:27.043Z,13.07
2023-01-21T13:02:56.671Z,11.60
2023-01-21T13:05:29.944Z,13.83
2023-01-21T13:08:04.350Z,9.97
2023-01-21T13:10:34.303Z,8.67
2023-01-21T13:13:21.725Z,8.37
2023-01-21T13:15:50.061Z,5.37
2023-01-21T13:18:18.221Z,6.50
2023-01-21T13:20:50.676Z,6.43
2023-01-21T13:23:38.060Z,6.20
2023-01-21T13:26:05.283Z,6.47
2023-01-21T13:28:52.670Z,4.70
2023-01-21T13:31:19.918Z,7.17
2023-01-21T13:34:19.397Z,10.87
2023-01-21T13:36:49.416Z,11.13
2023-01-21T13:39:16.546Z,12.13
2023-01-21T13:41:43.709Z,8.63
2023-01-21T13:44:16.703Z,9.20
2023-01-21T13:46:55.066Z,10.13
2023-01-21T13:49:37.623Z,13.90
2023-01-21T13:52:15.933Z,16.47
2023-01-21T13:54:49.355Z,13.87
2023-01-21T13:57:16.553Z,18.80
2023-01-21T13:59:46.260Z,20.43
2023-01-21T14:02:13.500Z,26.17
2023-01-21T14:04:51.818Z,36.53
2023-01-21T14:07:21.807Z,42.00
2023-01-21T14:10:09.025Z,38.07
2023-01-21T14:12:51.468Z,38.47
2023-01-21T14:15:18.817Z,39.40
2023-01-21T14:17:46.124Z,42.07
2023-01-21T14:20:31.239Z,31.43
2023-01-21T14:23:04.452Z,31.70
2023-01-21T14:25:46.511Z,32.83
2023-01-21T14:28:21.528Z,24.50
2023-01-21T14:31:07.272Z,22.93
2023-01-21T14:33:44.153Z,23.17
2023-01-21T14:36:31.591Z,20.73
2023-01-21T14:39:07.988Z,18.30
2023-01-21T14:41:53.680Z,16.00
2023-01-21T14:44:39.648Z,14.33
2023-01-21T14:47:25.089Z,14.70
2023-01-21T14:49:53.129Z,14.23
2023-01-21T14:52:21.160Z,14.63
2023-01-21T14:54:48.356Z,15.03
2023-01-21T14:57:22.749Z,17.33
2023-01-21T14:59:49.965Z,21.40
2023-01-21T15:02:40.703Z,26.43
2023-01-21T15:05:09.512Z,34.63
2023-01-21T15:07:38.973Z,32.47
2023-01-21T15:10:29.297Z,30.23
2023-01-21T15:12:56.899Z,36.17
2023-01-21T15:15:27.096Z,40.50
2023-01-21T15:17:54.274Z,47.53
2023-01-21T15:20:40.173Z,52.03
2023-01-21T15:23:18.513Z,53.23
2023-01-21T15:26:04.201Z,58.63
2023-01-21T15:28:52.103Z,55.33
2023-01-21T15:31:23.333Z,51.10
2023-01-21T15:33:53.034Z,49.03
2023-01-21T15:36:21.576Z,50.57
2023-01-21T15:38:49.660Z,68.07
2023-01-21T15:41:28.851Z,65.07
2023-01-21T15:44:07.694Z,49.93
2023-01-21T15:46:53.652Z,44.73
2023-01-21T15:49:39.518Z,43.27
2023-01-21T15:52:25.437Z,40.50
2023-01-21T15:55:11.695Z,41.70
2023-01-21T15:57:57.713Z,32.30
2023-01-21T16:00:38.922Z,31.50
2023-01-21T16:03:12.464Z,31.63
2023-01-21T16:05:39.688Z,32.43
2023-01-21T16:08:22.106Z,36.40
2023-01-21T16:11:01.490Z,81.27
2023-01-21T16:13:32.859Z,52.90
2023-01-21T16:16:06.043Z,70.67
2023-01-21T16:18:33.349Z,43.50
2023-01-21T16:21:00.537Z,33.20
2023-01-21T16:23:28.001Z,33.33
2023-01-21T16:25:55.186Z,34.60
2023-01-21T16:28:22.469Z,70.77
2023-01-21T16:30:53.944Z,52.93
2023-01-21T16:33:21.162Z,93.97
2023-01-21T16:35:58.202Z,59.07
2023-01-21T16:38:26.172Z,56.93
2023-01-21T16:41:08.678Z,53.57
2023-01-21T16:43:36.293Z,29.13
2023-01-21T16:46:04.718Z,23.20
2023-01-21T16:48:32.520Z,20.73
2023-01-21T16:50:59.907Z,18.70
2023-01-21T16:53:27.125Z,17.20
2023-01-21T16:55:57.914Z,21.03
2023-01-21T16:58:26.742Z,15.93
2023-01-21T17:01:09.218Z,17.40
2023-01-21T17:03:36.484Z,16.33
2023-01-21T17:06:08.546Z,16.80
2023-01-21T17:08:36.292Z,18.17
2023-01-21T17:11:04.345Z,22.13
2023-01-21T17:13:31.635Z,24.10
2023-01-21T17:16:00.880Z,25.80
2023-01-21T17:18:30.943Z,31.67
2023-01-21T17:21:02.371Z,34.13
2023-01-21T17:23:34.371Z,43.17
2023-01-21T17:26:03.585Z,44.67
2023-01-21T17:28:38.978Z,43.63
2023-01-21T17:31:21.147Z,39.57
2023-01-21T17:33:54.328Z,41.27
2023-01-21T17:36:21.475Z,41.70
2023-01-21T17:38:48.837Z,40.80
2023-01-21T17:41:24.212Z,40.97
2023-01-21T17:43:51.541Z,33.07
2023-01-21T17:46:22.961Z,28.50
2023-01-21T17:48:51.198Z,23.93
2023-01-21T17:51:23.264Z,33.90
2023-01-21T17:53:52.644Z,50.37
2023-01-21T17:56:38.819Z,74.53
2023-01-21T17:59:26.272Z,86.63
2023-01-21T18:01:53.725Z,66.90
2023-01-21T18:04:21.259Z,69.63
2023-01-21T18:06:50.769Z,60.73
2023-01-21T18:09:19.583Z,62.83
2023-01-21T18:11:49.707Z,50.23
2023-01-21T18:14:18.034Z,35.73
2023-01-21T18:16:45.537Z,30.47
2023-01-21T18:19:29.442Z,26.07
2023-01-21T18:21:56.800Z,23.80
2023-01-21T18:24:24.125Z,15.40
2023-01-21T18:26:51.386Z,17.17
2023-01-21T18:29:19.416Z,20.77
2023-01-21T18:31:48.810Z,19.13
2023-01-21T18:34:16.058Z,18.93
2023-01-21T18:36:43.238Z,20.87
2023-01-21T18:39:19.900Z,20.33
2023-01-21T18:41:47.056Z,20.93
2023-01-21T18:44:14.415Z,19.73
2023-01-21T18:46:43.220Z,19.43
2023-01-21T18:49:16.918Z,18.23
2023-01-21T18:51:44.360Z,17.00
2023-01-21T18:54:12.017Z,23.27
2023-01-21T18:56:40.204Z,26.93
2023-01-21T18:59:11.982Z,28.67
2023-01-21T19:01:39.192Z,43.27
2023-01-21T19:04:09.522Z,23.63
2023-01-21T19:06:37.057Z,27.53
2023-01-21T19:09:04.405Z,20.17
2023-01-21T19:11:31.557Z,18.80
2023-01-21T19:13:58.759Z,21.60
2023-01-21T19:16:25.996Z,23.60
2023-01-21T19:18:53.233Z,21.77
2023-01-21T19:21:20.480Z,24.23
2023-01-21T19:23:47.725Z,22.97
2023-01-21T19:26:14.872Z,23.17
2023-01-21T19:28:42.300Z,17.87
2023-01-21T19:31:09.555Z,21.97
2023-01-21T19:33:36.812Z,20.53
2023-01-21T19:36:04.715Z,34.40
2023-01-21T19:38:31.866Z,31.83
2023-01-21T19:40:59.006Z,27.97
2023-01-21T19:43:26.351Z,28.13
2023-01-21T19:45:53.559Z,32.07
2023-01-21T19:48:21.267Z,30.60
2023-01-21T19:50:48.553Z,37.20
2023-01-21T19:53:16.414Z,39.13
2023-01-21T19:55:44.032Z,38.30
2023-01-21T19:58:20.879Z,47.57
2023-01-21T20:00:49.230Z,47.23
2023-01-21T20:03:17.104Z,43.67
2023-01-21T20:05:44.357Z,45.00
2023-01-21T20:08:16.161Z,39.83
2023-01-21T20:10:43.866Z,42.20
2023-01-21T20:13:14.109Z,42.37
2023-01-21T20:15:41.406Z,42.47
2023-01-21T20:18:10.767Z,40.93
2023-01-21T20:20:37.946Z,36.07
2023-01-21T20:23:06.729Z,31.20
2023-01-21T20:25:37.813Z,27.43
2023-01-21T20:28:09.109Z,29.83
2023-01-21T20:30:36.320Z,29.53
2023-01-21T20:33:03.520Z,30.50
2023-01-21T20:35:30.743Z,25.13
2023-01-21T20:37:58.940Z,27.03
2023-01-21T20:40:27.006Z,28.57
2023-01-21T20:42:54.466Z,26.03
2023-01-21T20:45:22.784Z,40.73
2023-01-21T20:47:51.019Z,42.40
2023-01-21T20:50:19.357Z,49.70
2023-01-21T20:52:46.669Z,48.33
2023-01-21T20:55:14.503Z,50.20
2023-01-21T20:57:41.899Z,82.87
2023-01-21T21:00:14.076Z,54.87
2023-01-21T21:02:41.317Z,61.70
2023-01-21T21:05:08.703Z,107.10
2023-01-21T21:07:35.839Z,62.10
2023-01-21T21:10:03.022Z,63.43
2023-01-21T21:12:30.263Z,58.93
2023-01-21T21:14:57.484Z,42.73
2023-01-21T21:17:24.652Z,48.60
2023-01-21T21:19:51.806Z,55.87
2023-01-21T21:22:18.996Z,48.13
2023-01-21T21:24:46.207Z,144.07
2023-01-21T21:27:13.433Z,45.67
2023-01-21T21:29:40.695Z,60.27
2023-01-21T21:32:12.080Z,85.17
2023-01-21T21:34:39.523Z,103.90
2023-01-21T21:37:06.945Z,93.27
2023-01-21T21:39:34.086Z,56.60
2023-01-21T21:42:19.705Z,37.40
2023-01-21T21:44:46.837Z,35.20
2023-01-21T21:47:32.591Z,39.93
2023-01-21T21:49:59.738Z,65.40
2023-01-21T21:52:26.935Z,126.77
2023-01-21T21:54:54.795Z,78.27
2023-01-21T21:57:21.941Z,73.10
2023-01-21T21:59:49.096Z,79.13
2023-01-21T22:02:16.327Z,51.97
2023-01-21T22:04:43.539Z,34.77
2023-01-21T22:07:10.726Z,34.43
2023-01-21T22:09:37.900Z,34.10
2023-01-21T22:12:05.200Z,25.50
2023-01-21T22:14:32.371Z,40.83
2023-01-21T22:17:00.256Z,35.97
2023-01-21T22:19:27.575Z,27.47
2023-01-21T22:21:54.742Z,32.23
2023-01-21T22:24:21.940Z,30.27
2023-01-21T22:26:49.079Z,36.70
2023-01-21T22:29:16.245Z,38.43
2023-01-21T22:31:43.599Z,35.10
2023-01-21T22:34:11.508Z,31.50
2023-01-21T22:36:38.735Z,41.00
2023-01-21T22:39:05.882Z,35.93
2023-01-21T22:41:33.885Z,40.03
2023-01-21T22:44:01.058Z,32.80
2023-01-21T22:46:31.397Z,34.53
2023-01-21T22:48:58.702Z,34.83
2023-01-21T22:51:26.058Z,36.77
2023-01-21T22:53:53.433Z,35.80
2023-01-21T22:56:25.379Z,35.83
2023-01-21T22:58:55.443Z,32.70
2023-01-21T23:01:22.686Z,31.63
2023-01-21T23:03:49.877Z,28.27
2023-01-21T23:06:17.041Z,24.83
2023-01-21T23:08:44.162Z,24.93
2023-01-21T23:11:11.729Z,24.80
2023-01-21T23:13:38.887Z,77.53
2023-01-21T23:16:07.137Z,39.50
2023-01-21T23:18:36.155Z,23.43
2023-01-21T23:21:21.574Z,23.43
2023-01-21T23:23:49.001Z,22.00
2023-01-21T23:26:16.341Z,24.93
2023-01-21T23:28:43.512Z,23.03
2023-01-21T23:31:14.472Z,26.23
2023-01-21T23:33:41.859Z,25.33
2023-01-21T23:36:11.185Z,24.53
2023-01-21T23:38:38.407Z,25.97
2023-01-21T23:41:06.879Z,26.07
2023-01-21T23:43:34.111Z,24.70
2023-01-21T23:46:01.312Z,24.20
2023-01-21T23:48:28.470Z,21.93
2023-01-21T23:50:55.671Z,25.57
2023-01-21T23:53:22.814Z,23.97
2023-01-21T23:55:49.965Z,22.43
2023-01-21T23:58:17.219Z,21.80
